Time;durP1;ratioP1;P1;durP2;ratioP2;P2;SDS_P1;SDS_P2;PMS_P1;PMS_P2;Temp;Humidity;BMP_temperature;BMP_pressure;BME280_temperature;BME280_humidity;BME280_pressure;Samples;Min_cycle;Max_cycle;Signal;HPM_P1;HPM_P2
2023/09/02 00:00:19;;;;;;;68.63;65.53;;;;;;;;;;5052691;28;20493;-45
2023/09/02 00:02:46;;;;;;;71.00;67.60;;;;;;;;;;5052822;28;20477;-43
2023/09/02 00:05:13;;;;;;;67.13;64.07;;;;;;;;;;5052405;28;20459;-42
2023/09/02 00:07:41;;;;;;;67.40;64.40;;;;;;;;;;5052771;28;20445;-45
2023/09/02 00:10:10;;;;;;;68.40;65.20;;;;;;;;;;5052670;28;20442;-42
2023/09/02 00:12:38;;;;;;;70.70;67.30;;;;;;;;;;5044443;28;20432;-40
2023/09/02 00:15:06;;;;;;;73.03;69.73;;;;;;;;;;5052178;28;20987;-40
2023/09/02 00:17:35;;;;;;;73.50;70.13;;;;;;;;;;5052644;28;20895;-42
2023/09/02 00:20:05;;;;;;;74.17;70.77;;;;;;;;;;5052493;28;20531;-41
2023/09/02 00:22:32;;;;;;;71.70;68.40;;;;;;;;;;5052060;28;20541;-41
2023/09/02 00:25:00;;;;;;;70.93;67.53;;;;;;;;;;5051909;28;20832;-47
2023/09/02 00:27:29;;;;;;;70.60;67.20;;;;;;;;;;5052275;28;20943;-41
2023/09/02 00:29:57;;;;;;;73.70;70.37;;;;;;;;;;5052331;28;20990;-42
2023/09/02 00:32:24;;;;;;;76.93;73.63;;;;;;;;;;5052268;28;20432;-45
2023/09/02 00:34:51;;;;;;;69.20;66.00;;;;;;;;;;5051687;28;20520;-40
2023/09/02 00:37:19;;;;;;;69.90;66.80;;;;;;;;;;5052033;28;20803;-41
2023/09/02 00:39:46;;;;;;;69.70;66.30;;;;;;;;;;5052162;28;20470;-46
2023/09/02 00:42:16;;;;;;;70.40;67.10;;;;;;;;;;5051851;28;20475;-43
2023/09/02 00:44:45;;;;;;;67.87;64.77;;;;;;;;;;5051950;28;20840;-40
2023/09/02 00:47:13;;;;;;;69.77;66.57;;;;;;;;;;5051879;28;20435;-40
2023/09/02 00:49:40;;;;;;;68.27;65.17;;;;;;;;;;5051972;28;20561;-41
2023/09/02 00:52:08;;;;;;;69.63;66.33;;;;;;;;;;5051660;28;20459;-40
2023/09/02 00:54:35;;;;;;;69.70;66.40;;;;;;;;;;5051062;28;20963;-40
2023/09/02 00:57:03;;;;;;;71.67;68.07;;;;;;;;;;5051762;28;20942;-41
2023/09/02 00:59:31;;;;;;;72.40;69.20;;;;;;;;;;5051622;28;20945;-42
2023/09/02 01:02:01;;;;;;;71.90;68.50;;;;;;;;;;5051588;28;20567;-44
2023/09/02 01:04:28;;;;;;;74.90;71.50;;;;;;;;;;5051290;28;21018;-43
2023/09/02 01:06:57;;;;;;;72.47;69.37;;;;;;;;;;5031729;28;20480;-46
2023/09/02 01:09:24;;;;;;;66.67;63.87;;;;;;;;;;5040060;28;20435;-40
2023/09/02 01:11:52;;;;;;;71.53;68.33;;;;;;;;;;5031580;28;20911;-40
2023/09/02 01:14:20;;;;;;;71.80;68.60;;;;;;;;;;5031376;28;20460;-40
2023/09/02 01:16:47;;;;;;;70.07;67.00;;;;;;;;;;5049893;28;21050;-44
2023/09/02 01:19:17;;;;;;;70.03;67.03;;;;;;;;;;5051234;28;20737;-41
2023/09/02 01:21:59;;;;;;;70.70;67.70;;;;;;;;;;5051432;28;20959;-42
2023/09/02 01:24:38;;;;;;;73.33;70.23;;;;;;;;;;5051082;28;21010;-40
2023/09/02 01:27:12;;;;;;;73.87;70.63;;;;;;;;;;5031307;28;20543;-40
2023/09/02 01:29:43;;;;;;;74.17;70.73;;;;;;;;;;5031391;28;20523;-40
2023/09/02 01:32:13;;;;;;;76.13;72.77;;;;;;;;;;5031360;28;20435;-42
2023/09/02 01:34:41;;;;;;;74.93;71.73;;;;;;;;;;5031047;28;20484;-40
2023/09/02 01:37:09;;;;;;;78.70;75.20;;;;;;;;;;5031263;28;20494;-41
2023/09/02 01:39:37;;;;;;;73.40;70.23;;;;;;;;;;5031283;28;20847;-41
2023/09/02 01:42:05;;;;;;;78.10;74.43;;;;;;;;;;5031094;28;20432;-42
2023/09/02 01:44:34;;;;;;;75.83;72.60;;;;;;;;;;5030442;28;20476;-44
2023/09/02 01:47:02;;;;;;;77.80;74.57;;;;;;;;;;5031133;28;21034;-42
2023/09/02 01:49:30;;;;;;;79.93;76.53;;;;;;;;;;5028182;28;20463;-43
2023/09/02 01:51:58;;;;;;;81.60;78.10;;;;;;;;;;5028745;28;20867;-41
2023/09/02 01:54:26;;;;;;;83.80;79.90;;;;;;;;;;5029165;28;20999;-41
2023/09/02 01:56:54;;;;;;;78.97;75.00;;;;;;;;;;5030366;28;20492;-43
2023/09/02 01:59:21;;;;;;;84.30;80.20;;;;;;;;;;5031002;28;20515;-40
2023/09/02 02:01:50;;;;;;;88.50;84.20;;;;;;;;;;5030893;28;20440;-43
2023/09/02 02:04:20;;;;;;;82.13;78.40;;;;;;;;;;5030392;28;20987;-40
2023/09/02 02:06:48;;;;;;;75.97;72.47;;;;;;;;;;5030632;28;20555;-40
2023/09/02 02:09:20;;;;;;;82.70;78.40;;;;;;;;;;5030756;28;20442;-43
2023/09/02 02:11:48;;;;;;;81.47;77.57;;;;;;;;;;5023845;28;20459;-40
2023/09/02 02:14:17;;;;;;;87.33;80.03;;;;;;;;;;5030386;28;20455;-40
2023/09/02 02:16:44;;;;;;;87.90;82.33;;;;;;;;;;5022994;28;20543;-40
2023/09/02 02:19:13;;;;;;;88.00;81.60;;;;;;;;;;5027218;28;20437;-40
2023/09/02 02:21:40;;;;;;;75.60;71.23;;;;;;;;;;5017928;28;20946;-40
2023/09/02 02:24:08;;;;;;;80.73;76.43;;;;;;;;;;5034464;28;20566;-45
2023/09/02 02:26:35;;;;;;;80.87;76.53;;;;;;;;;;5034139;28;21007;-42
2023/09/02 02:29:03;;;;;;;78.70;74.80;;;;;;;;;;5024022;28;20495;-40
2023/09/02 02:31:31;;;;;;;80.47;76.57;;;;;;;;;;5034295;28;20443;-42
2023/09/02 02:33:59;;;;;;;86.40;81.87;;;;;;;;;;5034193;28;21027;-40
2023/09/02 02:36:27;;;;;;;85.33;81.07;;;;;;;;;;5049637;28;20463;-42
2023/09/02 02:38:55;;;;;;;88.77;82.33;;;;;;;;;;5054377;28;20927;-40
2023/09/02 02:41:22;;;;;;;84.40;79.60;;;;;;;;;;5054340;28;20435;-44
2023/09/02 02:43:50;;;;;;;83.10;78.97;;;;;;;;;;5053979;28;20510;-43
2023/09/02 02:46:17;;;;;;;83.87;78.43;;;;;;;;;;5053648;28;20466;-43
2023/09/02 02:48:45;;;;;;;83.07;75.50;;;;;;;;;;5046091;28;20441;-40
2023/09/02 02:51:12;;;;;;;97.70;89.43;;;;;;;;;;5054314;28;20431;-41
2023/09/02 02:53:41;;;;;;;79.10;74.37;;;;;;;;;;5053993;28;20473;-42
2023/09/02 02:56:09;;;;;;;84.70;79.40;;;;;;;;;;5054075;28;20567;-41
2023/09/02 02:58:36;;;;;;;92.80;83.93;;;;;;;;;;5053905;28;20876;-41
2023/09/02 03:01:05;;;;;;;83.23;78.23;;;;;;;;;;5053887;28;20437;-42
2023/09/02 03:03:32;;;;;;;81.30;76.80;;;;;;;;;;5053696;28;20517;-42
2023/09/02 03:06:00;;;;;;;86.83;80.70;;;;;;;;;;5053522;28;20455;-39
2023/09/02 03:08:28;;;;;;;83.13;78.10;;;;;;;;;;5053703;28;20465;-40
2023/09/02 03:10:57;;;;;;;86.13;81.13;;;;;;;;;;5053928;28;20431;-40
2023/09/02 03:13:25;;;;;;;92.10;85.87;;;;;;;;;;5053214;28;20471;-42
2023/09/02 03:15:54;;;;;;;87.90;81.63;;;;;;;;;;5053060;28;20487;-42
2023/09/02 03:18:21;;;;;;;89.00;82.60;;;;;;;;;;5053741;28;20807;-40
2023/09/02 03:20:49;;;;;;;89.43;84.20;;;;;;;;;;5053620;28;20431;-41
2023/09/02 03:23:16;;;;;;;97.07;88.67;;;;;;;;;;5052932;28;21027;-40
2023/09/02 03:25:44;;;;;;;85.70;80.67;;;;;;;;;;5053122;28;20463;-40
2023/09/02 03:28:13;;;;;;;83.07;78.40;;;;;;;;;;5052398;28;20458;-43
2023/09/02 03:30:41;;;;;;;86.10;81.50;;;;;;;;;;5053397;28;20436;-43
2023/09/02 03:33:09;;;;;;;87.13;82.63;;;;;;;;;;5053020;28;20455;-40
2023/09/02 03:35:38;;;;;;;85.77;81.13;;;;;;;;;;5052976;28;20463;-40
2023/09/02 03:38:06;;;;;;;87.93;83.10;;;;;;;;;;5053168;28;20503;-40
2023/09/02 03:40:34;;;;;;;84.70;80.17;;;;;;;;;;5053115;28;20855;-40
2023/09/02 03:43:01;;;;;;;88.67;82.97;;;;;;;;;;5052724;28;20489;-42
2023/09/02 03:45:30;;;;;;;86.33;82.10;;;;;;;;;;5052615;28;20483;-42
2023/09/02 03:47:57;;;;;;;86.43;82.00;;;;;;;;;;5053095;28;20436;-40
2023/09/02 03:50:26;;;;;;;86.43;81.43;;;;;;;;;;5052890;28;20442;-40
2023/09/02 03:52:53;;;;;;;96.73;91.43;;;;;;;;;;5052742;28;20473;-40
2023/09/02 03:55:20;;;;;;;92.60;87.30;;;;;;;;;;5052331;28;20462;-40
2023/09/02 03:57:48;;;;;;;84.27;80.37;;;;;;;;;;5045040;28;20435;-41
2023/09/02 04:00:16;;;;;;;91.27;87.00;;;;;;;;;;5052731;28;20431;-42
2023/09/02 04:02:45;;;;;;;93.33;86.00;;;;;;;;;;5052429;28;20810;-40
2023/09/02 04:05:13;;;;;;;87.63;82.83;;;;;;;;;;5052335;28;20463;-42
2023/09/02 04:07:40;;;;;;;92.23;87.07;;;;;;;;;;5052538;28;20431;-40
2023/09/02 04:10:08;;;;;;;107.97;101.83;;;;;;;;;;5052548;28;20470;-40
2023/09/02 04:12:36;;;;;;;106.30;100.97;;;;;;;;;;5052377;28;20459;-42
2023/09/02 04:15:03;;;;;;;110.47;103.60;;;;;;;;;;5052120;28;20551;-40
2023/09/02 04:17:31;;;;;;;97.70;93.90;;;;;;;;;;5052258;28;20432;-43
2023/09/02 04:20:00;;;;;;;108.00;103.37;;;;;;;;;;5052462;28;20435;-42
2023/09/02 04:22:28;;;;;;;104.30;100.10;;;;;;;;;;5051905;28;20510;-40
2023/09/02 04:24:56;;;;;;;107.17;102.40;;;;;;;;;;5051917;28;20455;-42
2023/09/02 04:27:24;;;;;;;108.27;102.93;;;;;;;;;;5052219;28;20427;-43
2023/09/02 04:29:53;;;;;;;116.00;105.63;;;;;;;;;;5052135;28;21092;-42
2023/09/02 04:32:20;;;;;;;106.13;99.17;;;;;;;;;;5051903;28;20518;-45
2023/09/02 04:34:48;;;;;;;94.47;90.23;;;;;;;;;;5051373;28;20450;-41
2023/09/02 04:37:16;;;;;;;101.33;96.73;;;;;;;;;;5052117;28;20459;-43
2023/09/02 04:39:44;;;;;;;98.13;91.53;;;;;;;;;;5051461;28;20455;-40
2023/09/02 04:42:11;;;;;;;96.47;92.00;;;;;;;;;;5051867;28;20474;-40
2023/09/02 04:44:39;;;;;;;98.40;92.30;;;;;;;;;;5051247;28;21004;-40
2023/09/02 04:47:10;;;;;;;93.90;89.60;;;;;;;;;;5051805;28;20459;-40
2023/09/02 04:49:37;;;;;;;99.33;95.13;;;;;;;;;;5051594;28;20939;-43
2023/09/02 04:52:05;;;;;;;100.00;95.20;;;;;;;;;;5051968;28;20523;-41
2023/09/02 04:54:33;;;;;;;102.03;96.17;;;;;;;;;;5051018;28;20466;-40
2023/09/02 04:57:01;;;;;;;92.10;88.30;;;;;;;;;;5051868;28;20881;-41
2023/09/02 04:59:28;;;;;;;98.97;95.07;;;;;;;;;;5051409;28;20546;-40
2023/09/02 05:01:56;;;;;;;97.50;93.80;;;;;;;;;;5051911;28;20810;-40
2023/09/02 05:04:23;;;;;;;97.00;92.57;;;;;;;;;;5051359;28;20466;-43
2023/09/02 05:06:51;;;;;;;93.63;89.70;;;;;;;;;;5051222;28;20491;-40
2023/09/02 05:09:18;;;;;;;90.17;86.30;;;;;;;;;;5051654;28;21031;-42
2023/09/02 05:11:47;;;;;;;88.20;84.90;;;;;;;;;;5051550;28;20522;-40
2023/09/02 05:14:14;;;;;;;92.80;89.30;;;;;;;;;;5051154;28;20546;-40
2023/09/02 05:16:42;;;;;;;91.70;88.10;;;;;;;;;;5050689;28;20547;-42
2023/09/02 05:19:09;;;;;;;89.03;85.70;;;;;;;;;;5051416;28;20526;-43
2023/09/02 05:21:38;;;;;;;88.03;84.93;;;;;;;;;;5051377;28;20852;-41
2023/09/02 05:24:05;;;;;;;88.17;84.77;;;;;;;;;;5051075;28;20490;-44
2023/09/02 05:26:33;;;;;;;81.70;78.73;;;;;;;;;;5050409;28;20486;-42
2023/09/02 05:29:02;;;;;;;77.33;73.50;;;;;;;;;;5051212;28;20439;-40
2023/09/02 05:31:29;;;;;;;76.33;73.17;;;;;;;;;;5051088;28;20538;-40
2023/09/02 05:33:57;;;;;;;74.77;71.87;;;;;;;;;;5051023;28;20505;-41
2023/09/02 05:36:24;;;;;;;68.13;65.30;;;;;;;;;;5050616;28;20542;-43
2023/09/02 05:38:52;;;;;;;58.00;55.70;;;;;;;;;;5051204;28;20432;-41
2023/09/02 05:41:19;;;;;;;51.37;49.47;;;;;;;;;;5050999;28;20949;-40
2023/09/02 05:43:46;;;;;;;51.07;49.17;;;;;;;;;;5050366;28;20534;-41
2023/09/02 05:46:15;;;;;;;55.83;53.73;;;;;;;;;;5050581;28;20463;-40
2023/09/02 05:48:43;;;;;;;60.13;57.43;;;;;;;;;;5051146;28;20492;-40
2023/09/02 05:51:10;;;;;;;59.80;57.50;;;;;;;;;;5050524;28;20435;-41
2023/09/02 05:53:38;;;;;;;54.63;52.73;;;;;;;;;;5050145;28;20455;-41
2023/09/02 05:56:05;;;;;;;53.10;50.77;;;;;;;;;;5050417;28;20461;-41
2023/09/02 05:58:32;;;;;;;41.50;40.00;;;;;;;;;;5050974;28;20443;-40
2023/09/02 06:01:03;;;;;;;43.73;42.03;;;;;;;;;;5050879;28;20467;-40
2023/09/02 06:03:32;;;;;;;33.70;32.60;;;;;;;;;;5050454;28;20457;-42
2023/09/02 06:05:59;;;;;;;34.87;33.57;;;;;;;;;;5050335;28;21169;-40
2023/09/02 06:08:28;;;;;;;30.73;29.63;;;;;;;;;;5050790;28;20431;-42
2023/09/02 06:10:57;;;;;;;26.20;25.30;;;;;;;;;;5050668;28;20458;-41
2023/09/02 06:13:24;;;;;;;25.60;24.70;;;;;;;;;;5050555;28;20462;-42
2023/09/02 06:15:52;;;;;;;24.57;23.67;;;;;;;;;;5050208;28;20454;-42
2023/09/02 06:18:19;;;;;;;24.47;23.57;;;;;;;;;;5050884;28;20431;-41
2023/09/02 06:20:48;;;;;;;22.00;21.20;;;;;;;;;;5050435;28;20469;-42
2023/09/02 06:23:15;;;;;;;21.63;20.83;;;;;;;;;;5051570;28;20454;-41
2023/09/02 06:25:43;;;;;;;21.20;20.40;;;;;;;;;;5050367;28;20528;-41
2023/09/02 06:28:11;;;;;;;15.90;15.30;;;;;;;;;;5050682;28;20453;-41
2023/09/02 06:30:38;;;;;;;15.57;14.87;;;;;;;;;;5050354;28;20501;-44
2023/09/02 06:33:06;;;;;;;10.87;10.37;;;;;;;;;;5050281;28;20530;-42
2023/09/02 06:35:33;;;;;;;10.87;10.37;;;;;;;;;;5050114;28;20854;-41
2023/09/02 06:38:02;;;;;;;9.33;8.50;;;;;;;;;;5050412;28;20437;-41
2023/09/02 06:40:29;;;;;;;9.37;8.97;;;;;;;;;;5050729;28;20526;-42
2023/09/02 06:42:57;;;;;;;8.93;8.63;;;;;;;;;;5042588;28;20431;-43
2023/09/02 06:45:25;;;;;;;9.60;9.10;;;;;;;;;;5049975;28;20473;-41
2023/09/02 06:47:53;;;;;;;8.30;8.00;;;;;;;;;;5050670;28;20437;-41
2023/09/02 06:50:21;;;;;;;9.50;9.10;;;;;;;;;;5050531;28;20206;-42
2023/09/02 06:52:48;;;;;;;8.23;7.93;;;;;;;;;;5050382;28;20514;-41
2023/09/02 06:55:17;;;;;;;13.17;12.27;;;;;;;;;;5050030;28;20730;-41
2023/09/02 06:57:44;;;;;;;9.20;8.70;;;;;;;;;;5050341;28;20224;-43
2023/09/02 07:00:13;;;;;;;10.43;9.83;;;;;;;;;;5050505;28;20279;-42
2023/09/02 07:02:42;;;;;;;7.87;7.47;;;;;;;;;;5050234;28;20193;-41
2023/09/02 07:05:09;;;;;;;12.50;11.60;;;;;;;;;;5053450;28;20710;-42
2023/09/02 07:07:38;;;;;;;11.90;11.20;;;;;;;;;;5054029;28;20212;-42
2023/09/02 07:10:05;;;;;;;15.40;14.20;;;;;;;;;;5054020;28;20663;-41
2023/09/02 07:12:35;;;;;;;12.23;11.53;;;;;;;;;;5053409;28;20431;-41
2023/09/02 07:15:03;;;;;;;9.13;8.63;;;;;;;;;;5053217;28;20228;-41
2023/09/02 07:17:30;;;;;;;10.30;9.70;;;;;;;;;;5053778;28;20193;-40
2023/09/02 07:19:58;;;;;;;8.00;7.70;;;;;;;;;;5053852;28;20202;-42
2023/09/02 07:22:25;;;;;;;9.10;8.67;;;;;;;;;;5053090;28;20200;-41
2023/09/02 07:24:52;;;;;;;7.87;7.40;;;;;;;;;;5053161;28;20234;-43
2023/09/02 07:27:20;;;;;;;7.90;7.50;;;;;;;;;;5053495;28;20498;-41
2023/09/02 07:29:49;;;;;;;8.93;8.53;;;;;;;;;;5053221;28;20457;-41
2023/09/02 07:32:16;;;;;;;8.53;8.13;;;;;;;;;;5053089;28;20431;-45
2023/09/02 07:34:44;;;;;;;8.80;8.40;;;;;;;;;;5052844;28;20516;-42
2023/09/02 07:37:11;;;;;;;7.93;7.57;;;;;;;;;;5053303;28;20970;-41
2023/09/02 07:39:38;;;;;;;7.77;7.37;;;;;;;;;;5053158;28;20431;-41
2023/09/02 07:42:06;;;;;;;9.40;8.80;;;;;;;;;;5053210;28;20771;-41
2023/09/02 07:44:34;;;;;;;8.23;7.80;;;;;;;;;;5052392;28;20482;-40
2023/09/02 07:47:03;;;;;;;7.50;7.13;;;;;;;;;;5053262;28;20524;-42
2023/09/02 07:49:30;;;;;;;9.00;8.53;;;;;;;;;;5053309;28;20441;-41
2023/09/02 07:51:58;;;;;;;7.00;6.60;;;;;;;;;;5052920;28;21005;-41
2023/09/02 07:54:25;;;;;;;6.43;6.13;;;;;;;;;;5052832;28;20545;-42
2023/09/02 07:56:53;;;;;;;7.10;6.60;;;;;;;;;;5052379;28;20461;-46
2023/09/02 07:59:20;;;;;;;7.10;6.70;;;;;;;;;;5053225;28;20514;-42
2023/09/02 08:01:47;;;;;;;6.03;5.83;;;;;;;;;;5052528;28;20849;-41
2023/09/02 08:04:16;;;;;;;6.33;5.90;;;;;;;;;;5052836;28;20455;-41
2023/09/02 08:06:44;;;;;;;7.23;6.90;;;;;;;;;;5052105;28;20466;-41
2023/09/02 08:09:11;;;;;;;7.83;7.23;;;;;;;;;;5052781;28;20435;-41
2023/09/02 08:11:39;;;;;;;7.97;7.57;;;;;;;;;;5052443;28;20514;-41
2023/09/02 08:14:06;;;;;;;7.67;7.17;;;;;;;;;;5052139;28;20984;-40
2023/09/02 08:16:33;;;;;;;7.63;7.20;;;;;;;;;;5051659;28;20529;-41
2023/09/02 08:19:01;;;;;;;6.67;6.37;;;;;;;;;;5052659;28;20463;-42
2023/09/02 08:21:30;;;;;;;6.13;5.93;;;;;;;;;;5052450;28;20435;-40
2023/09/02 08:23:57;;;;;;;6.87;6.47;;;;;;;;;;5052057;28;20505;-40
2023/09/02 08:26:25;;;;;;;6.20;5.90;;;;;;;;;;5051917;28;20470;-41
2023/09/02 08:28:52;;;;;;;7.80;7.50;;;;;;;;;;5052311;28;20522;-41
2023/09/02 08:31:20;;;;;;;7.23;6.93;;;;;;;;;;5052426;28;20922;-41
2023/09/02 08:33:48;;;;;;;7.57;7.23;;;;;;;;;;5052012;28;20459;-41
2023/09/02 08:36:16;;;;;;;8.23;7.70;;;;;;;;;;5051824;28;20566;-43
2023/09/02 08:38:45;;;;;;;8.67;8.20;;;;;;;;;;5051964;28;20470;-40
2023/09/02 08:41:17;;;;;;;8.17;7.77;;;;;;;;;;5052040;28;20435;-40
2023/09/02 08:43:44;;;;;;;7.50;7.10;;;;;;;;;;5051709;28;20538;-42
2023/09/02 08:46:14;;;;;;;7.17;6.77;;;;;;;;;;5051592;28;20490;-43
2023/09/02 08:48:42;;;;;;;7.00;6.63;;;;;;;;;;5052163;28;20806;-41
2023/09/02 08:51:10;;;;;;;6.57;6.13;;;;;;;;;;5051765;28;20597;-40
2023/09/02 08:53:38;;;;;;;7.40;6.90;;;;;;;;;;5051745;28;20493;-41
2023/09/02 08:56:08;;;;;;;6.80;6.30;;;;;;;;;;5051475;28;20459;-40
2023/09/02 08:58:39;;;;;;;6.63;6.23;;;;;;;;;;5051885;28;20466;-40
2023/09/02 09:01:07;;;;;;;6.33;5.90;;;;;;;;;;5044107;28;20605;-40
2023/09/02 09:03:39;;;;;;;6.00;5.60;;;;;;;;;;5051406;28;20458;-41
2023/09/02 09:06:09;;;;;;;5.73;5.43;;;;;;;;;;5051193;28;20851;-42
2023/09/02 09:08:37;;;;;;;6.17;5.60;;;;;;;;;;5051830;28;20466;-41
2023/09/02 09:11:06;;;;;;;6.00;5.60;;;;;;;;;;5051912;28;20523;-43
2023/09/02 09:13:35;;;;;;;8.40;5.73;;;;;;;;;;5051198;28;20494;-42
2023/09/02 09:16:04;;;;;;;5.87;5.40;;;;;;;;;;5050824;28;20450;-40
2023/09/02 09:18:31;;;;;;;5.67;5.37;;;;;;;;;;5051462;28;20909;-40
2023/09/02 09:20:59;;;;;;;5.40;5.10;;;;;;;;;;5051372;28;20530;-41
2023/09/02 09:23:26;;;;;;;5.10;4.80;;;;;;;;;;5050850;28;20461;-41
2023/09/02 09:25:54;;;;;;;5.63;5.23;;;;;;;;;;5050945;28;20459;-40
2023/09/02 09:28:21;;;;;;;5.97;5.33;;;;;;;;;;5051263;28;20470;-42
2023/09/02 09:30:50;;;;;;;5.63;5.27;;;;;;;;;;5051037;28;20445;-41
2023/09/02 09:33:19;;;;;;;5.23;5.03;;;;;;;;;;5051184;28;20462;-40
2023/09/02 09:35:47;;;;;;;6.13;5.60;;;;;;;;;;5050895;28;20542;-43
2023/09/02 09:38:14;;;;;;;6.07;5.30;;;;;;;;;;5051306;28;20458;-40
2023/09/02 09:40:42;;;;;;;6.73;6.23;;;;;;;;;;5051069;28;20629;-42
2023/09/02 09:43:23;;;;;;;5.47;5.20;;;;;;;;;;5050758;28;21013;-44
2023/09/02 09:45:52;;;;;;;5.67;5.40;;;;;;;;;;5050810;28;20526;-40
2023/09/02 09:48:20;;;;;;;6.13;5.70;;;;;;;;;;5051159;28;20557;-42
2023/09/02 09:50:47;;;;;;;5.50;5.20;;;;;;;;;;5051069;28;20469;-40
2023/09/02 09:53:15;;;;;;;5.23;4.97;;;;;;;;;;5050383;28;20465;-40
2023/09/02 09:55:43;;;;;;;5.30;4.90;;;;;;;;;;5050342;28;20463;-41
2023/09/02 09:58:11;;;;;;;6.17;4.67;;;;;;;;;;5051360;28;20435;-41
2023/09/02 10:00:38;;;;;;;5.27;5.07;;;;;;;;;;5051026;28;20869;-41
2023/09/02 10:03:08;;;;;;;5.07;4.77;;;;;;;;;;5042437;28;20458;-43
2023/09/02 10:05:36;;;;;;;5.07;4.73;;;;;;;;;;5050476;28;20843;-41
2023/09/02 10:08:04;;;;;;;4.93;4.63;;;;;;;;;;5050718;28;20561;-43
2023/09/02 10:10:33;;;;;;;5.87;5.50;;;;;;;;;;5050698;28;20481;-43
2023/09/02 10:13:00;;;;;;;4.93;4.63;;;;;;;;;;5050436;28;20875;-43
2023/09/02 10:15:28;;;;;;;5.50;5.20;;;;;;;;;;5050709;28;20539;-43
2023/09/02 10:17:57;;;;;;;5.10;4.90;;;;;;;;;;5050916;28;20914;-40
2023/09/02 10:20:27;;;;;;;5.20;4.90;;;;;;;;;;5050817;28;20434;-45
2023/09/02 10:22:55;;;;;;;4.50;4.30;;;;;;;;;;5050169;28;20434;-44
2023/09/02 10:25:24;;;;;;;5.30;4.90;;;;;;;;;;5050627;28;20554;-40
2023/09/02 10:27:57;;;;;;;5.23;4.93;;;;;;;;;;5050741;28;20474;-41
2023/09/02 10:30:26;;;;;;;4.33;4.03;;;;;;;;;;5050734;28;20431;-40
2023/09/02 10:32:55;;;;;;;4.17;3.87;;;;;;;;;;5050307;28;20457;-42
2023/09/02 10:35:23;;;;;;;4.63;4.40;;;;;;;;;;5050145;28;20467;-44
2023/09/02 10:37:53;;;;;;;4.63;4.33;;;;;;;;;;5051189;28;20841;-40
2023/09/02 10:40:22;;;;;;;4.77;4.53;;;;;;;;;;5054536;28;20783;-44
2023/09/02 10:42:49;;;;;;;4.27;4.07;;;;;;;;;;5054219;28;20441;-44
2023/09/02 10:45:17;;;;;;;4.60;4.30;;;;;;;;;;5054004;28;20458;-41
2023/09/02 10:47:45;;;;;;;3.97;3.77;;;;;;;;;;5054028;28;20956;-43
2023/09/02 10:50:13;;;;;;;3.97;3.67;;;;;;;;;;5054377;28;20434;-44
2023/09/02 10:52:41;;;;;;;3.93;3.73;;;;;;;;;;5053957;28;20521;-40
2023/09/02 10:55:11;;;;;;;4.50;4.20;;;;;;;;;;5053927;28;20861;-41
2023/09/02 10:57:46;;;;;;;3.70;3.50;;;;;;;;;;5054462;28;20462;-42
2023/09/02 11:00:17;;;;;;;3.90;3.70;;;;;;;;;;5054148;28;20933;-40
2023/09/02 11:02:45;;;;;;;3.17;3.00;;;;;;;;;;5055639;28;20434;-45
2023/09/02 11:05:12;;;;;;;3.50;2.83;;;;;;;;;;5055769;28;20455;-41
2023/09/02 11:07:40;;;;;;;3.67;3.47;;;;;;;;;;5056343;28;20466;-41
2023/09/02 11:10:08;;;;;;;3.73;3.53;;;;;;;;;;5056288;28;20993;-40
2023/09/02 11:12:57;;;;;;;3.43;3.23;;;;;;;;;;5056193;28;20806;-40
2023/09/02 11:15:24;;;;;;;3.57;3.37;;;;;;;;;;5056514;28;21028;-41
2023/09/02 11:17:52;;;;;;;4.30;3.90;;;;;;;;;;5056593;28;20435;-46
2023/09/02 11:20:23;;;;;;;4.70;4.40;;;;;;;;;;5056839;28;20435;-41
2023/09/02 11:22:52;;;;;;;5.30;3.93;;;;;;;;;;5056378;28;20435;-40
2023/09/02 11:25:29;;;;;;;4.10;3.90;;;;;;;;;;5055992;28;20461;-42
2023/09/02 11:27:59;;;;;;;4.63;4.17;;;;;;;;;;5055921;28;21001;-43
2023/09/02 11:30:29;;;;;;;4.00;3.77;;;;;;;;;;5056332;28;20506;-44
2023/09/02 11:32:56;;;;;;;5.10;4.10;;;;;;;;;;5055964;28;20469;-43
2023/09/02 11:35:25;;;;;;;3.73;3.43;;;;;;;;;;5055515;28;20455;-46
2023/09/02 11:37:52;;;;;;;3.77;3.47;;;;;;;;;;5055714;28;20534;-44
2023/09/02 11:40:21;;;;;;;3.40;3.20;;;;;;;;;;5056022;28;20526;-44
2023/09/02 11:42:48;;;;;;;4.00;3.80;;;;;;;;;;5055764;28;20443;-41
2023/09/02 11:45:17;;;;;;;4.00;3.70;;;;;;;;;;5055581;28;20999;-44
2023/09/02 11:47:45;;;;;;;4.10;3.80;;;;;;;;;;5056072;28;20521;-49
2023/09/02 11:50:13;;;;;;;4.30;3.97;;;;;;;;;;5054927;28;20521;-41
2023/09/02 11:52:41;;;;;;;4.47;4.17;;;;;;;;;;5055443;28;20938;-43
2023/09/02 11:55:09;;;;;;;5.37;4.47;;;;;;;;;;5055336;28;20978;-46
2023/09/02 11:57:37;;;;;;;4.10;3.90;;;;;;;;;;5055919;28;20484;-41
2023/09/02 12:00:06;;;;;;;4.30;3.90;;;;;;;;;;5055951;28;20879;-47
2023/09/02 12:02:37;;;;;;;3.80;3.60;;;;;;;;;;5055856;28;20559;-42
2023/09/02 12:05:07;;;;;;;3.70;3.40;;;;;;;;;;5055324;28;21049;-40
2023/09/02 12:07:36;;;;;;;3.60;3.40;;;;;;;;;;5055778;28;20431;-43
2023/09/02 12:10:08;;;;;;;3.57;3.33;;;;;;;;;;5055439;28;20837;-41
2023/09/02 12:12:35;;;;;;;4.07;3.77;;;;;;;;;;5055678;28;20954;-42
2023/09/02 12:15:03;;;;;;;3.67;3.47;;;;;;;;;;5054507;28;20482;-43
2023/09/02 12:17:31;;;;;;;3.63;3.43;;;;;;;;;;5055284;28;20926;-46
2023/09/02 12:20:00;;;;;;;4.97;4.67;;;;;;;;;;5055887;28;20437;-42
2023/09/02 12:22:28;;;;;;;4.07;3.80;;;;;;;;;;5054901;28;20530;-47
2023/09/02 12:24:55;;;;;;;3.87;3.57;;;;;;;;;;5055314;28;20451;-41
2023/09/02 12:27:23;;;;;;;7.17;3.90;;;;;;;;;;5055644;28;20438;-41
2023/09/02 12:29:54;;;;;;;3.50;3.30;;;;;;;;;;5055713;28;20838;-42
2023/09/02 12:32:21;;;;;;;3.50;3.30;;;;;;;;;;5055351;28;20434;-43
2023/09/02 12:34:49;;;;;;;3.90;3.60;;;;;;;;;;5054955;28;20822;-41
2023/09/02 12:37:19;;;;;;;3.93;3.70;;;;;;;;;;5055121;28;20431;-41
2023/09/02 12:39:47;;;;;;;3.73;3.53;;;;;;;;;;5055070;28;20454;-41
2023/09/02 12:42:18;;;;;;;4.07;3.87;;;;;;;;;;5046247;28;20435;-44
2023/09/02 12:44:49;;;;;;;3.57;3.37;;;;;;;;;;5054326;28;20492;-41
2023/09/02 12:47:20;;;;;;;4.17;3.87;;;;;;;;;;5054902;28;20434;-42
2023/09/02 12:49:48;;;;;;;3.63;3.20;;;;;;;;;;5054987;28;20475;-43
2023/09/02 12:52:17;;;;;;;4.10;3.17;;;;;;;;;;5054489;28;20435;-43
2023/09/02 12:54:55;;;;;;;3.97;3.47;;;;;;;;;;5052768;28;20459;-46
2023/09/02 12:57:23;;;;;;;3.73;3.53;;;;;;;;;;5052824;28;20434;-44
2023/09/02 12:59:50;;;;;;;3.97;3.57;;;;;;;;;;5052817;28;20462;-47
2023/09/02 13:02:19;;;;;;;4.63;4.30;;;;;;;;;;5052406;28;20434;-40
2023/09/02 13:04:46;;;;;;;4.63;3.67;;;;;;;;;;5051779;28;20496;-42
2023/09/02 13:07:16;;;;;;;4.90;3.77;;;;;;;;;;5051932;28;20518;-41
2023/09/02 13:09:46;;;;;;;3.80;3.50;;;;;;;;;;5051731;28;20910;-44
2023/09/02 13:12:13;;;;;;;4.03;3.73;;;;;;;;;;5051568;28;20509;-40
2023/09/02 13:14:42;;;;;;;3.50;3.40;;;;;;;;;;5050888;28;20462;-41
2023/09/02 13:17:11;;;;;;;3.90;3.60;;;;;;;;;;5051374;28;20466;-41
2023/09/02 13:19:39;;;;;;;5.27;4.87;;;;;;;;;;5051498;28;20522;-40
2023/09/02 13:22:06;;;;;;;5.27;4.67;;;;;;;;;;5051101;28;20518;-41
2023/09/02 13:24:34;;;;;;;4.43;3.90;;;;;;;;;;5051145;28;20451;-41
2023/09/02 13:27:03;;;;;;;4.07;3.77;;;;;;;;;;5051136;28;20492;-40
2023/09/02 13:29:32;;;;;;;3.60;3.40;;;;;;;;;;5051277;28;20517;-40
2023/09/02 13:32:06;;;;;;;3.70;3.50;;;;;;;;;;5051328;28;20435;-40
2023/09/02 13:34:34;;;;;;;3.70;3.40;;;;;;;;;;5050544;28;20465;-40
2023/09/02 13:37:07;;;;;;;4.07;3.83;;;;;;;;;;5051157;28;20530;-43
2023/09/02 13:39:35;;;;;;;5.03;3.97;;;;;;;;;;5051333;28;20441;-42
2023/09/02 13:42:04;;;;;;;3.60;3.40;;;;;;;;;;5051140;28;20470;-41
2023/09/02 13:44:32;;;;;;;3.93;3.57;;;;;;;;;;5050226;28;20834;-41
2023/09/02 13:47:04;;;;;;;3.20;3.00;;;;;;;;;;5050964;28;20431;-40
2023/09/02 13:49:32;;;;;;;3.70;3.50;;;;;;;;;;5051217;28;20470;-40
2023/09/02 13:52:00;;;;;;;3.57;3.27;;;;;;;;;;5050975;28;20509;-41
2023/09/02 13:54:27;;;;;;;4.23;4.00;;;;;;;;;;5050840;28;20454;-41
2023/09/02 13:56:55;;;;;;;3.77;3.47;;;;;;;;;;5050498;28;20483;-40
2023/09/02 13:59:24;;;;;;;4.00;3.70;;;;;;;;;;5050978;28;20810;-42
2023/09/02 14:01:52;;;;;;;3.73;3.43;;;;;;;;;;5050997;28;20441;-40
2023/09/02 14:04:20;;;;;;;3.57;3.37;;;;;;;;;;5050922;28;20581;-40
2023/09/02 14:06:48;;;;;;;3.80;3.33;;;;;;;;;;5050597;28;20465;-42
2023/09/02 14:09:18;;;;;;;4.27;3.10;;;;;;;;;;5050642;28;20435;-45
2023/09/02 14:11:45;;;;;;;6.77;3.33;;;;;;;;;;5051038;28;20510;-40
2023/09/02 14:14:14;;;;;;;3.50;3.20;;;;;;;;;;5053231;28;20466;-44
2023/09/02 14:16:43;;;;;;;4.87;3.73;;;;;;;;;;5054592;28;20507;-40
2023/09/02 14:19:11;;;;;;;4.43;3.90;;;;;;;;;;5054845;28;20434;-41
2023/09/02 14:21:38;;;;;;;3.53;3.33;;;;;;;;;;5054765;28;20958;-40
2023/09/02 14:24:06;;;;;;;3.63;3.43;;;;;;;;;;5054548;28;20466;-40
2023/09/02 14:26:33;;;;;;;3.87;3.57;;;;;;;;;;5054365;28;20560;-40
2023/09/02 14:29:01;;;;;;;3.57;3.33;;;;;;;;;;5054765;28;20445;-43
2023/09/02 14:31:30;;;;;;;4.90;3.70;;;;;;;;;;5054566;28;20505;-41
2023/09/02 14:33:59;;;;;;;3.53;3.23;;;;;;;;;;5054150;28;20454;-42
2023/09/02 14:36:26;;;;;;;3.87;3.60;;;;;;;;;;5054207;28;20772;-42